PAA838 PHNL-KSFO
Flight info
| Callsign | PAA838 |
|---|---|
| Flight time | 4h 31m |
| Altitude | 35000 |
| Route | MKK5 MKK MAGGI R463 ADOPE/N0488F370 R463 ADTIL/N0482F390 R463 ALCOA PYE PYE3 |
| Aircraft | B741/H-SDFHIRWXY/L |
Departure
| Time | 2026-05-06 23:52 |
|---|---|
| Airport | Daniel K. Inouye International Airport (PHNL) |
Arrival
| Time | 2026-05-07 04:23 |
|---|---|
| Airport | San Francisco International Airport (KSFO) |
| Time | Latitude | Longitude | Altitude | Speed | Heading |
|---|---|---|---|---|---|
| 2026-05-06 23:08 | 21.33001 | -157.91744 | 42 ft | 0 kts | 99° |
| 2026-05-06 23:33 | 21.33001 | -157.91745 | 41 ft | 1 kts | 99° |
| 2026-05-06 23:33 | 21.33004 | -157.91760 | 41 ft | 2 kts | 99° |
| 2026-05-06 23:33 | 21.33006 | -157.91777 | 42 ft | 2 kts | 99° |
| 2026-05-06 23:34 | 21.33008 | -157.91792 | 42 ft | 2 kts | 85° |
| 2026-05-06 23:34 | 21.33003 | -157.91808 | 42 ft | 2 kts | 58° |
| 2026-05-06 23:34 | 21.32993 | -157.91818 | 42 ft | 2 kts | 32° |
| 2026-05-06 23:34 | 21.32979 | -157.91824 | 41 ft | 2 kts | 8° |
| 2026-05-06 23:35 | 21.32959 | -157.91826 | 41 ft | 2 kts | 9° |
| 2026-05-06 23:35 | 21.32949 | -157.91829 | 41 ft | 2 kts | 10° |
| 2026-05-06 23:35 | 21.32934 | -157.91832 | 41 ft | 2 kts | 9° |
| 2026-05-06 23:35 | 21.32915 | -157.91835 | 40 ft | 2 kts | 9° |
| 2026-05-06 23:36 | 21.32905 | -157.91836 | 40 ft | 2 kts | 9° |
| 2026-05-06 23:36 | 21.32890 | -157.91838 | 40 ft | 2 kts | 8° |
| 2026-05-06 23:36 | 21.32875 | -157.91841 | 39 ft | 2 kts | 8° |
| 2026-05-06 23:36 | 21.32860 | -157.91844 | 39 ft | 2 kts | 8° |
| 2026-05-06 23:37 | 21.32841 | -157.91847 | 38 ft | 2 kts | 8° |
| 2026-05-06 23:37 | 21.32830 | -157.91847 | 37 ft | 2 kts | 7° |
| 2026-05-06 23:37 | 21.32816 | -157.91850 | 37 ft | 2 kts | 7° |
| 2026-05-06 23:37 | 21.32806 | -157.91852 | 37 ft | 2 kts | 4° |
| 2026-05-06 23:38 | 21.32792 | -157.91849 | 37 ft | 2 kts | 335° |
| 2026-05-06 23:38 | 21.32781 | -157.91840 | 36 ft | 2 kts | 310° |
| 2026-05-06 23:38 | 21.32774 | -157.91826 | 36 ft | 2 kts | 285° |
| 2026-05-06 23:38 | 21.32772 | -157.91814 | 36 ft | 1 kts | 269° |
| 2026-05-06 23:42 | 21.32772 | -157.91859 | 36 ft | 11 kts | 271° |
| 2026-05-06 23:42 | 21.32772 | -157.91969 | 37 ft | 15 kts | 269° |
| 2026-05-06 23:42 | 21.32772 | -157.92096 | 38 ft | 17 kts | 270° |
| 2026-05-06 23:43 | 21.32772 | -157.92236 | 39 ft | 19 kts | 269° |
| 2026-05-06 23:43 | 21.32773 | -157.92375 | 39 ft | 18 kts | 270° |
| 2026-05-06 23:43 | 21.32772 | -157.92502 | 39 ft | 17 kts | 269° |
| 2026-05-06 23:43 | 21.32773 | -157.92647 | 38 ft | 19 kts | 270° |
| 2026-05-06 23:44 | 21.32750 | -157.92787 | 38 ft | 19 kts | 256° |
| 2026-05-06 23:44 | 21.32741 | -157.92946 | 37 ft | 21 kts | 270° |
| 2026-05-06 23:44 | 21.32741 | -157.93105 | 35 ft | 20 kts | 270° |
| 2026-05-06 23:44 | 21.32741 | -157.93256 | 34 ft | 19 kts | 270° |
| 2026-05-06 23:45 | 21.32743 | -157.93399 | 34 ft | 18 kts | 267° |
| 2026-05-06 23:45 | 21.32741 | -157.93527 | 33 ft | 16 kts | 270° |
| 2026-05-06 23:45 | 21.32741 | -157.93654 | 34 ft | 19 kts | 270° |
| 2026-05-06 23:45 | 21.32741 | -157.93813 | 34 ft | 21 kts | 271° |
| 2026-05-06 23:46 | 21.32740 | -157.93962 | 34 ft | 19 kts | 267° |
| 2026-05-06 23:46 | 21.32696 | -157.94083 | 34 ft | 16 kts | 218° |
| 2026-05-06 23:46 | 21.32594 | -157.94144 | 35 ft | 19 kts | 208° |
| 2026-05-06 23:46 | 21.32456 | -157.94228 | 35 ft | 22 kts | 209° |
| 2026-05-06 23:47 | 21.32323 | -157.94307 | 35 ft | 20 kts | 210° |
| 2026-05-06 23:47 | 21.32201 | -157.94379 | 35 ft | 19 kts | 209° |
| 2026-05-06 23:47 | 21.32089 | -157.94446 | 35 ft | 17 kts | 209° |
| 2026-05-06 23:47 | 21.31979 | -157.94511 | 34 ft | 19 kts | 209° |
| 2026-05-06 23:48 | 21.31846 | -157.94589 | 32 ft | 23 kts | 208° |
| 2026-05-06 23:48 | 21.31701 | -157.94653 | 29 ft | 22 kts | 186° |
| 2026-05-06 23:48 | 21.31537 | -157.94641 | 26 ft | 21 kts | 173° |
| 2026-05-06 23:48 | 21.31385 | -157.94621 | 23 ft | 21 kts | 173° |
| 2026-05-06 23:49 | 21.31237 | -157.94601 | 21 ft | 21 kts | 173° |
| 2026-05-06 23:49 | 21.31088 | -157.94583 | 19 ft | 20 kts | 173° |
| 2026-05-06 23:49 | 21.30948 | -157.94568 | 18 ft | 19 kts | 180° |
| 2026-05-06 23:49 | 21.30815 | -157.94568 | 17 ft | 18 kts | 180° |
| 2026-05-06 23:50 | 21.30702 | -157.94566 | 16 ft | 8 kts | 178° |
| 2026-05-06 23:50 | 21.30680 | -157.94533 | 16 ft | 0 kts | 90° |
| 2026-05-06 23:50 | 21.30680 | -157.94528 | 16 ft | 4 kts | 90° |
| 2026-05-06 23:51 | 21.30680 | -157.94403 | 16 ft | 42 kts | 90° |
| 2026-05-06 23:51 | 21.30681 | -157.93845 | 16 ft | 106 kts | 90° |
| 2026-05-06 23:51 | 21.30680 | -157.92853 | 19 ft | 161 kts | 90° |
| 2026-05-06 23:51 | 21.30693 | -157.91505 | 249 ft | 187 kts | 91° |
| 2026-05-06 23:52 | 21.30579 | -157.90198 | 936 ft | 180 kts | 116° |
| 2026-05-06 23:52 | 21.29731 | -157.89250 | 1442 ft | 181 kts | 159° |
| 2026-05-06 23:52 | 21.28498 | -157.88899 | 1678 ft | 182 kts | 168° |
| 2026-05-06 23:52 | 21.27231 | -157.88649 | 1889 ft | 188 kts | 169° |
| 2026-05-06 23:53 | 21.25908 | -157.88394 | 2015 ft | 199 kts | 169° |
| 2026-05-06 23:53 | 21.24507 | -157.88133 | 2208 ft | 208 kts | 169° |
| 2026-05-06 23:53 | 21.23097 | -157.87653 | 2267 ft | 220 kts | 141° |
| 2026-05-06 23:53 | 21.22124 | -157.86400 | 2515 ft | 223 kts | 121° |
| 2026-05-06 23:54 | 21.21444 | -157.84853 | 2579 ft | 238 kts | 110° |
| 2026-05-06 23:54 | 21.20835 | -157.83134 | 2677 ft | 257 kts | 109° |
| 2026-05-06 23:54 | 21.20202 | -157.81316 | 3040 ft | 264 kts | 109° |
| 2026-05-06 23:54 | 21.19589 | -157.79503 | 3658 ft | 262 kts | 109° |
| 2026-05-06 23:55 | 21.18949 | -157.77609 | 3935 ft | 274 kts | 109° |
| 2026-05-06 23:55 | 21.18310 | -157.75682 | 4370 ft | 278 kts | 109° |
| 2026-05-06 23:55 | 21.17637 | -157.73694 | 4789 ft | 285 kts | 109° |
| 2026-05-06 23:55 | 21.16965 | -157.71719 | 5354 ft | 286 kts | 109° |
| 2026-05-06 23:56 | 21.16474 | -157.69636 | 5821 ft | 289 kts | 89° |
| 2026-05-06 23:56 | 21.16919 | -157.67595 | 6315 ft | 288 kts | 60° |
| 2026-05-06 23:56 | 21.18121 | -157.65883 | 6779 ft | 290 kts | 41° |
| 2026-05-06 23:56 | 21.19674 | -157.64468 | 7256 ft | 293 kts | 40° |
| 2026-05-06 23:57 | 21.21115 | -157.62915 | 7783 ft | 295 kts | 46° |
| 2026-05-06 23:57 | 21.22525 | -157.61308 | 8292 ft | 297 kts | 45° |
| 2026-05-06 23:57 | 21.23975 | -157.59724 | 8769 ft | 301 kts | 44° |
| 2026-05-06 23:57 | 21.25475 | -157.58139 | 9236 ft | 304 kts | 44° |
| 2026-05-06 23:58 | 21.26995 | -157.56552 | 9652 ft | 309 kts | 44° |
| 2026-05-06 23:58 | 21.28546 | -157.54939 | 10130 ft | 311 kts | 44° |
| 2026-05-06 23:58 | 21.30123 | -157.53297 | 10372 ft | 323 kts | 44° |
| 2026-05-06 23:58 | 21.31772 | -157.51581 | 10621 ft | 334 kts | 44° |
| 2026-05-06 23:59 | 21.33481 | -157.49800 | 10863 ft | 346 kts | 44° |
| 2026-05-06 23:59 | 21.35228 | -157.47981 | 11101 ft | 358 kts | 44° |
| 2026-05-06 23:59 | 21.37045 | -157.46088 | 11353 ft | 369 kts | 44° |
| 2026-05-06 23:59 | 21.38908 | -157.44145 | 11602 ft | 381 kts | 44° |
| 2026-05-07 00:00 | 21.41495 | -157.41447 | 12177 ft | 388 kts | 44° |
| 2026-05-07 00:00 | 21.43412 | -157.39447 | 12723 ft | 389 kts | 44° |
| 2026-05-07 00:00 | 21.44721 | -157.38080 | 13066 ft | 391 kts | 43° |
| 2026-05-07 00:00 | 21.46664 | -157.36049 | 13524 ft | 395 kts | 43° |
| 2026-05-07 00:01 | 21.48635 | -157.33989 | 14083 ft | 396 kts | 44° |
| 2026-05-07 00:01 | 21.50631 | -157.31903 | 14581 ft | 399 kts | 44° |
| 2026-05-07 00:01 | 21.52618 | -157.29825 | 14928 ft | 406 kts | 44° |
| 2026-05-07 00:01 | 21.54650 | -157.27701 | 14934 ft | 408 kts | 44° |
| 2026-05-07 00:02 | 21.56667 | -157.25589 | 14936 ft | 399 kts | 44° |
| 2026-05-07 00:02 | 21.58648 | -157.23512 | 14931 ft | 400 kts | 44° |
| 2026-05-07 00:02 | 21.60661 | -157.21403 | 14947 ft | 402 kts | 44° |
| 2026-05-07 00:02 | 21.62655 | -157.19312 | 14950 ft | 402 kts | 44° |
| 2026-05-07 00:03 | 21.64659 | -157.17212 | 14935 ft | 402 kts | 44° |
| 2026-05-07 00:03 | 21.66654 | -157.15120 | 14941 ft | 401 kts | 44° |
| 2026-05-07 00:03 | 21.68658 | -157.13016 | 14946 ft | 402 kts | 44° |
| 2026-05-07 00:03 | 21.70670 | -157.10902 | 14944 ft | 402 kts | 44° |
| 2026-05-07 00:04 | 21.72655 | -157.08820 | 14933 ft | 401 kts | 44° |
| 2026-05-07 00:04 | 21.74667 | -157.06705 | 14938 ft | 401 kts | 43° |
| 2026-05-07 00:04 | 21.76651 | -157.04620 | 14942 ft | 402 kts | 44° |
| 2026-05-07 00:04 | 21.78663 | -157.02504 | 14946 ft | 402 kts | 44° |
| 2026-05-07 00:05 | 21.80656 | -157.00407 | 14936 ft | 402 kts | 43° |
| 2026-05-07 00:05 | 21.82684 | -156.98352 | 14943 ft | 401 kts | 38° |
| 2026-05-07 00:05 | 21.85074 | -156.96758 | 14939 ft | 399 kts | 24° |
| 2026-05-07 00:05 | 21.87630 | -156.95682 | 14957 ft | 399 kts | 17° |
| 2026-05-07 00:06 | 21.90326 | -156.94829 | 14952 ft | 398 kts | 13° |
| 2026-05-07 00:06 | 21.93006 | -156.94076 | 14947 ft | 398 kts | 13° |
| 2026-05-07 00:06 | 21.96585 | -156.93092 | 14947 ft | 397 kts | 13° |
| 2026-05-07 00:06 | 21.98365 | -156.92595 | 14942 ft | 398 kts | 13° |
| 2026-05-07 00:07 | 22.01052 | -156.91836 | 14942 ft | 398 kts | 13° |
| 2026-05-07 00:07 | 22.03727 | -156.91074 | 14941 ft | 398 kts | 13° |
| 2026-05-07 00:07 | 22.06427 | -156.90299 | 14934 ft | 398 kts | 13° |
| 2026-05-07 00:07 | 22.10004 | -156.89272 | 15045 ft | 403 kts | 13° |
| 2026-05-07 00:08 | 22.11793 | -156.88759 | 15439 ft | 403 kts | 13° |
| 2026-05-07 00:08 | 22.14525 | -156.87975 | 16042 ft | 402 kts | 13° |
| 2026-05-07 00:08 | 22.17246 | -156.87193 | 16530 ft | 404 kts | 13° |
| 2026-05-07 00:08 | 22.19952 | -156.86415 | 16991 ft | 407 kts | 13° |
| 2026-05-07 00:09 | 22.22688 | -156.85629 | 17475 ft | 409 kts | 13° |
| 2026-05-07 00:09 | 22.25478 | -156.84827 | 17950 ft | 411 kts | 13° |
| 2026-05-07 00:09 | 22.28227 | -156.84035 | 18397 ft | 414 kts | 13° |
| 2026-05-07 00:09 | 22.31059 | -156.83220 | 18845 ft | 417 kts | 14° |
| 2026-05-07 00:10 | 22.33864 | -156.82411 | 19274 ft | 420 kts | 13° |
| 2026-05-07 00:10 | 22.36718 | -156.81589 | 19722 ft | 423 kts | 13° |
| 2026-05-07 00:10 | 22.39547 | -156.80772 | 20156 ft | 426 kts | 14° |
| 2026-05-07 00:10 | 22.42445 | -156.79938 | 20596 ft | 429 kts | 14° |
| 2026-05-07 00:11 | 22.45325 | -156.79106 | 21003 ft | 432 kts | 14° |
| 2026-05-07 00:11 | 22.48227 | -156.78264 | 21420 ft | 434 kts | 14° |
| 2026-05-07 00:11 | 22.51192 | -156.77400 | 21812 ft | 437 kts | 14° |
| 2026-05-07 00:11 | 22.54111 | -156.76549 | 22202 ft | 440 kts | 14° |
| 2026-05-07 00:12 | 22.57102 | -156.75674 | 22603 ft | 442 kts | 14° |
| 2026-05-07 00:12 | 22.60055 | -156.74812 | 23013 ft | 444 kts | 14° |
| 2026-05-07 00:12 | 22.63048 | -156.73936 | 23419 ft | 446 kts | 14° |
| 2026-05-07 00:12 | 22.66045 | -156.73061 | 23821 ft | 447 kts | 14° |
| 2026-05-07 00:13 | 22.69068 | -156.72177 | 24205 ft | 450 kts | 14° |
| 2026-05-07 00:13 | 22.72122 | -156.71284 | 24590 ft | 452 kts | 14° |
| 2026-05-07 00:13 | 22.75152 | -156.70399 | 24982 ft | 453 kts | 14° |
| 2026-05-07 00:13 | 22.78179 | -156.69513 | 25359 ft | 455 kts | 14° |
| 2026-05-07 00:14 | 22.81246 | -156.68614 | 25708 ft | 457 kts | 14° |
| 2026-05-07 00:14 | 22.84358 | -156.67703 | 26052 ft | 459 kts | 13° |
| 2026-05-07 00:14 | 22.87426 | -156.66805 | 26396 ft | 461 kts | 13° |
| 2026-05-07 00:14 | 22.90566 | -156.65884 | 26729 ft | 463 kts | 13° |
| 2026-05-07 00:15 | 22.93673 | -156.64973 | 27071 ft | 465 kts | 13° |
| 2026-05-07 00:15 | 22.96782 | -156.64061 | 27409 ft | 466 kts | 13° |
| 2026-05-07 00:15 | 22.99937 | -156.63133 | 27724 ft | 468 kts | 13° |
| 2026-05-07 00:15 | 23.03101 | -156.62204 | 28026 ft | 469 kts | 13° |
| 2026-05-07 00:16 | 23.06263 | -156.61273 | 28304 ft | 471 kts | 13° |
| 2026-05-07 00:16 | 23.09434 | -156.60341 | 28577 ft | 473 kts | 13° |
| 2026-05-07 00:16 | 23.12608 | -156.59407 | 28838 ft | 475 kts | 13° |
| 2026-05-07 00:16 | 23.15789 | -156.58470 | 29090 ft | 477 kts | 13° |
| 2026-05-07 00:17 | 23.18987 | -156.57529 | 29337 ft | 478 kts | 13° |
| 2026-05-07 00:17 | 23.22223 | -156.56573 | 29575 ft | 480 kts | 13° |
| 2026-05-07 00:17 | 23.25481 | -156.55614 | 29803 ft | 482 kts | 13° |
| 2026-05-07 00:17 | 23.28720 | -156.54658 | 30037 ft | 484 kts | 13° |
| 2026-05-07 00:18 | 23.31952 | -156.53705 | 30268 ft | 485 kts | 13° |
| 2026-05-07 00:18 | 23.35245 | -156.52731 | 30490 ft | 487 kts | 13° |
| 2026-05-07 00:18 | 23.38503 | -156.51769 | 30736 ft | 488 kts | 13° |
| 2026-05-07 00:18 | 23.41779 | -156.50801 | 30966 ft | 489 kts | 13° |
| 2026-05-07 00:19 | 23.45103 | -156.49817 | 31257 ft | 489 kts | 13° |
| 2026-05-07 00:19 | 23.48345 | -156.48857 | 31615 ft | 488 kts | 12° |
| 2026-05-07 00:19 | 23.51631 | -156.47884 | 31942 ft | 487 kts | 13° |
| 2026-05-07 00:19 | 23.54893 | -156.46918 | 32266 ft | 486 kts | 13° |
| 2026-05-07 00:20 | 23.58179 | -156.45943 | 32553 ft | 485 kts | 13° |
| 2026-05-07 00:20 | 23.61413 | -156.44984 | 32852 ft | 485 kts | 12° |
| 2026-05-07 00:20 | 23.64677 | -156.44017 | 33101 ft | 485 kts | 13° |
| 2026-05-07 00:20 | 23.67936 | -156.43048 | 33387 ft | 485 kts | 12° |
| 2026-05-07 00:21 | 23.71199 | -156.42079 | 33767 ft | 482 kts | 12° |
| 2026-05-07 00:21 | 23.74405 | -156.41126 | 34105 ft | 481 kts | 12° |
| 2026-05-07 00:21 | 23.77634 | -156.40166 | 34397 ft | 480 kts | 12° |
| 2026-05-07 00:21 | 23.80850 | -156.39209 | 34681 ft | 479 kts | 12° |
| 2026-05-07 00:22 | 23.84103 | -156.38242 | 34963 ft | 478 kts | 12° |
| 2026-05-07 00:22 | 23.87298 | -156.37291 | 35043 ft | 481 kts | 12° |
| 2026-05-07 00:22 | 23.93835 | -156.35345 | 35062 ft | 489 kts | 12° |
| 2026-05-07 00:23 | 24.00391 | -156.33266 | 35050 ft | 497 kts | 20° |
| 2026-05-07 00:23 | 24.03501 | -156.31485 | 35057 ft | 500 kts | 32° |
| 2026-05-07 00:23 | 24.06175 | -156.29106 | 35061 ft | 502 kts | 42° |
| 2026-05-07 00:24 | 24.10703 | -156.23225 | 35058 ft | 506 kts | 51° |
| 2026-05-07 00:24 | 24.14770 | -156.16991 | 35059 ft | 506 kts | 53° |
| 2026-05-07 00:25 | 24.18842 | -156.10706 | 35056 ft | 505 kts | 52° |
| 2026-05-07 00:25 | 24.22956 | -156.04445 | 35056 ft | 505 kts | 52° |
| 2026-05-07 00:26 | 24.27069 | -155.98218 | 35057 ft | 507 kts | 52° |
| 2026-05-07 00:26 | 24.31194 | -155.91971 | 35054 ft | 507 kts | 52° |
| 2026-05-07 00:27 | 24.35312 | -155.85724 | 35055 ft | 506 kts | 52° |
| 2026-05-07 00:27 | 24.39443 | -155.79450 | 35056 ft | 506 kts | 52° |
| 2026-05-07 00:28 | 24.43552 | -155.73198 | 35055 ft | 506 kts | 52° |
| 2026-05-07 00:28 | 24.47644 | -155.66965 | 35056 ft | 506 kts | 51° |
| 2026-05-07 00:29 | 24.51757 | -155.60693 | 35056 ft | 506 kts | 51° |
| 2026-05-07 00:30 | 24.59956 | -155.48167 | 35055 ft | 506 kts | 52° |
| 2026-05-07 00:30 | 24.64058 | -155.41888 | 35054 ft | 507 kts | 52° |
| 2026-05-07 00:31 | 24.68182 | -155.35565 | 35053 ft | 507 kts | 52° |
| 2026-05-07 00:31 | 24.72265 | -155.29297 | 35052 ft | 506 kts | 52° |
| 2026-05-07 00:32 | 24.76316 | -155.22992 | 35051 ft | 506 kts | 53° |
| 2026-05-07 00:32 | 24.80299 | -155.16632 | 35052 ft | 506 kts | 53° |
| 2026-05-07 00:33 | 24.84280 | -155.10259 | 35052 ft | 507 kts | 53° |
| 2026-05-07 00:33 | 24.88295 | -155.03836 | 35050 ft | 508 kts | 53° |
| 2026-05-07 00:34 | 24.92288 | -154.97447 | 35049 ft | 507 kts | 53° |
| 2026-05-07 00:34 | 24.96272 | -154.91061 | 35049 ft | 505 kts | 53° |
| 2026-05-07 00:35 | 25.00240 | -154.84698 | 35049 ft | 507 kts | 53° |
| 2026-05-07 00:35 | 25.04226 | -154.78296 | 35051 ft | 507 kts | 53° |
| 2026-05-07 00:36 | 25.08210 | -154.71887 | 35057 ft | 507 kts | 53° |
| 2026-05-07 00:36 | 25.12191 | -154.65474 | 35059 ft | 508 kts | 53° |
| 2026-05-07 00:37 | 25.16181 | -154.59039 | 35059 ft | 508 kts | 53° |
| 2026-05-07 00:37 | 25.20154 | -154.52622 | 35059 ft | 506 kts | 53° |
| 2026-05-07 00:38 | 25.24102 | -154.46236 | 35058 ft | 507 kts | 53° |
| 2026-05-07 00:38 | 25.28075 | -154.39804 | 35058 ft | 508 kts | 53° |
| 2026-05-07 00:39 | 25.32053 | -154.33353 | 35057 ft | 508 kts | 53° |
| 2026-05-07 00:39 | 25.36030 | -154.26894 | 35057 ft | 509 kts | 53° |
| 2026-05-07 00:40 | 25.40008 | -154.20425 | 35053 ft | 510 kts | 53° |
| 2026-05-07 00:40 | 25.43976 | -154.13963 | 35052 ft | 510 kts | 53° |
| 2026-05-07 00:41 | 25.47979 | -154.07437 | 35048 ft | 510 kts | 53° |
| 2026-05-07 00:41 | 25.51955 | -154.00946 | 35050 ft | 511 kts | 53° |
| 2026-05-07 00:42 | 25.55913 | -153.94475 | 35049 ft | 511 kts | 53° |
| 2026-05-07 00:42 | 25.59876 | -153.87984 | 35048 ft | 509 kts | 53° |
| 2026-05-07 00:43 | 25.63858 | -153.81456 | 35050 ft | 510 kts | 53° |
| 2026-05-07 00:43 | 25.67810 | -153.74968 | 35050 ft | 512 kts | 53° |
| 2026-05-07 00:44 | 25.71785 | -153.68431 | 35047 ft | 511 kts | 53° |
| 2026-05-07 00:44 | 25.75741 | -153.61917 | 35047 ft | 512 kts | 53° |
| 2026-05-07 00:45 | 25.79729 | -153.55344 | 35048 ft | 514 kts | 53° |
| 2026-05-07 00:45 | 25.83687 | -153.48808 | 35044 ft | 512 kts | 53° |
| 2026-05-07 00:46 | 25.87649 | -153.42256 | 35042 ft | 512 kts | 53° |
| 2026-05-07 00:46 | 25.91622 | -153.35677 | 35032 ft | 513 kts | 53° |
| 2026-05-07 00:47 | 25.95589 | -153.29100 | 35033 ft | 513 kts | 53° |
| 2026-05-07 00:47 | 25.99536 | -153.22546 | 35031 ft | 512 kts | 53° |
| 2026-05-07 00:48 | 26.03498 | -153.15958 | 35032 ft | 513 kts | 53° |
| 2026-05-07 00:48 | 26.07466 | -153.09351 | 35032 ft | 514 kts | 53° |
| 2026-05-07 00:49 | 26.11420 | -153.02756 | 35030 ft | 514 kts | 53° |
| 2026-05-07 00:49 | 26.15372 | -152.96156 | 35029 ft | 515 kts | 53° |
| 2026-05-07 00:50 | 26.19316 | -152.89558 | 35029 ft | 514 kts | 53° |
| 2026-05-07 00:50 | 26.23273 | -152.82932 | 35030 ft | 516 kts | 53° |
| 2026-05-07 00:51 | 26.27257 | -152.76250 | 35031 ft | 516 kts | 53° |
| 2026-05-07 00:51 | 26.31205 | -152.69618 | 35030 ft | 514 kts | 53° |
| 2026-05-07 00:52 | 26.35143 | -152.62994 | 35030 ft | 516 kts | 53° |
| 2026-05-07 00:52 | 26.39085 | -152.56355 | 35029 ft | 517 kts | 53° |
| 2026-05-07 00:53 | 26.43055 | -152.49657 | 35028 ft | 515 kts | 53° |
| 2026-05-07 00:53 | 26.47003 | -152.42984 | 35029 ft | 516 kts | 53° |
| 2026-05-07 00:54 | 26.50953 | -152.36301 | 35028 ft | 517 kts | 53° |
| 2026-05-07 00:54 | 26.54896 | -152.29619 | 35029 ft | 516 kts | 54° |
| 2026-05-07 00:55 | 26.58827 | -152.22949 | 35029 ft | 519 kts | 53° |
| 2026-05-07 00:55 | 26.62790 | -152.16214 | 35028 ft | 520 kts | 54° |
| 2026-05-07 00:56 | 26.66734 | -152.09499 | 35029 ft | 518 kts | 54° |
| 2026-05-07 00:56 | 26.70702 | -152.02736 | 35028 ft | 519 kts | 53° |
| 2026-05-07 00:57 | 26.74643 | -151.96008 | 35028 ft | 520 kts | 54° |
| 2026-05-07 00:57 | 26.78602 | -151.89238 | 35030 ft | 519 kts | 54° |
| 2026-05-07 00:58 | 26.82540 | -151.82494 | 35028 ft | 520 kts | 54° |
| 2026-05-07 00:58 | 26.86503 | -151.75699 | 35031 ft | 520 kts | 53° |
| 2026-05-07 00:59 | 26.92419 | -151.65533 | 35032 ft | 521 kts | 54° |
| 2026-05-07 01:00 | 26.96361 | -151.58748 | 35030 ft | 521 kts | 54° |
| 2026-05-07 01:00 | 27.00293 | -151.51968 | 35030 ft | 521 kts | 53° |
| 2026-05-07 01:01 | 27.04242 | -151.45148 | 35028 ft | 520 kts | 53° |
| 2026-05-07 01:01 | 27.08152 | -151.38385 | 35027 ft | 520 kts | 53° |
| 2026-05-07 01:02 | 27.12078 | -151.31586 | 35026 ft | 520 kts | 54° |
| 2026-05-07 01:02 | 27.15998 | -151.24786 | 35029 ft | 520 kts | 54° |
| 2026-05-07 01:03 | 27.19912 | -151.17986 | 35027 ft | 521 kts | 54° |
| 2026-05-07 01:03 | 27.23845 | -151.11144 | 35027 ft | 522 kts | 54° |
| 2026-05-07 01:04 | 27.27772 | -151.04298 | 35022 ft | 522 kts | 54° |
| 2026-05-07 01:04 | 27.31697 | -150.97447 | 35022 ft | 523 kts | 54° |
| 2026-05-07 01:05 | 27.35651 | -150.90536 | 35020 ft | 523 kts | 54° |
| 2026-05-07 01:05 | 27.39543 | -150.83719 | 35021 ft | 522 kts | 54° |
| 2026-05-07 01:06 | 27.43479 | -150.76817 | 35021 ft | 523 kts | 54° |
| 2026-05-07 01:06 | 27.47396 | -150.69937 | 35021 ft | 523 kts | 54° |
| 2026-05-07 01:07 | 27.51287 | -150.63092 | 35022 ft | 523 kts | 54° |
| 2026-05-07 01:07 | 27.55214 | -150.56174 | 35027 ft | 523 kts | 54° |
| 2026-05-07 01:08 | 27.59104 | -150.49307 | 35028 ft | 522 kts | 54° |
| 2026-05-07 01:08 | 27.63027 | -150.42374 | 35028 ft | 523 kts | 54° |
| 2026-05-07 01:09 | 27.66905 | -150.35509 | 35029 ft | 523 kts | 54° |
| 2026-05-07 01:09 | 27.70828 | -150.28552 | 35028 ft | 524 kts | 54° |
| 2026-05-07 01:10 | 27.74721 | -150.21639 | 35029 ft | 524 kts | 55° |
| 2026-05-07 01:10 | 27.78623 | -150.14696 | 35029 ft | 524 kts | 55° |
| 2026-05-07 01:11 | 27.82522 | -150.07748 | 35028 ft | 523 kts | 54° |
| 2026-05-07 01:11 | 27.86401 | -150.00824 | 35028 ft | 523 kts | 54° |
| 2026-05-07 01:12 | 27.90280 | -149.93893 | 35029 ft | 523 kts | 54° |
| 2026-05-07 01:12 | 27.94157 | -149.86954 | 35028 ft | 524 kts | 55° |
| 2026-05-07 01:13 | 27.98027 | -149.80013 | 35030 ft | 523 kts | 55° |
| 2026-05-07 01:13 | 28.01888 | -149.73076 | 35030 ft | 523 kts | 54° |
| 2026-05-07 01:14 | 28.05767 | -149.66098 | 35028 ft | 524 kts | 55° |
| 2026-05-07 01:14 | 28.09630 | -149.59135 | 35029 ft | 523 kts | 54° |
| 2026-05-07 01:15 | 28.13497 | -149.52156 | 35030 ft | 524 kts | 54° |
| 2026-05-07 01:15 | 28.17366 | -149.45163 | 35026 ft | 525 kts | 55° |
| 2026-05-07 01:16 | 28.21238 | -149.38148 | 35026 ft | 524 kts | 55° |
| 2026-05-07 01:16 | 28.25093 | -149.31155 | 35023 ft | 525 kts | 55° |
| 2026-05-07 01:17 | 28.28949 | -149.24152 | 35022 ft | 526 kts | 55° |
| 2026-05-07 01:17 | 28.32814 | -149.17116 | 35022 ft | 525 kts | 55° |
| 2026-05-07 01:18 | 28.36665 | -149.10097 | 35014 ft | 525 kts | 55° |
| 2026-05-07 01:18 | 28.40527 | -149.03046 | 35011 ft | 527 kts | 55° |
| 2026-05-07 01:19 | 28.44368 | -148.96019 | 35008 ft | 525 kts | 55° |
| 2026-05-07 01:19 | 28.48220 | -148.88963 | 35014 ft | 526 kts | 55° |
| 2026-05-07 01:20 | 28.52077 | -148.81886 | 35014 ft | 527 kts | 55° |
| 2026-05-07 01:20 | 28.55917 | -148.74858 | 35010 ft | 526 kts | 55° |
| 2026-05-07 01:21 | 28.59784 | -148.67781 | 35010 ft | 527 kts | 55° |
| 2026-05-07 01:21 | 28.63647 | -148.60698 | 35009 ft | 527 kts | 55° |
| 2026-05-07 01:22 | 28.67482 | -148.53648 | 35013 ft | 527 kts | 55° |
| 2026-05-07 01:22 | 28.71340 | -148.46549 | 35010 ft | 529 kts | 55° |
| 2026-05-07 01:23 | 28.75194 | -148.39441 | 35011 ft | 528 kts | 55° |
| 2026-05-07 01:23 | 28.79043 | -148.32330 | 35013 ft | 528 kts | 55° |
| 2026-05-07 01:24 | 28.82879 | -148.25233 | 35010 ft | 529 kts | 56° |
| 2026-05-07 01:24 | 28.86751 | -148.18057 | 35008 ft | 529 kts | 55° |
| 2026-05-07 01:25 | 28.90582 | -148.10942 | 35010 ft | 528 kts | 56° |
| 2026-05-07 01:25 | 28.94418 | -148.03810 | 35009 ft | 529 kts | 55° |
| 2026-05-07 01:26 | 28.98270 | -147.96632 | 35010 ft | 530 kts | 56° |
| 2026-05-07 01:26 | 29.02097 | -147.89490 | 35010 ft | 530 kts | 56° |
| 2026-05-07 01:27 | 29.05924 | -147.82335 | 35009 ft | 530 kts | 55° |
| 2026-05-07 01:27 | 29.09759 | -147.75154 | 35015 ft | 531 kts | 55° |
| 2026-05-07 01:28 | 29.13603 | -147.67943 | 35021 ft | 530 kts | 56° |
| 2026-05-07 01:28 | 29.17412 | -147.60783 | 35022 ft | 531 kts | 56° |
| 2026-05-07 01:29 | 29.21250 | -147.53560 | 35020 ft | 531 kts | 56° |
| 2026-05-07 01:29 | 29.25063 | -147.46367 | 35022 ft | 531 kts | 56° |
| 2026-05-07 01:30 | 29.28909 | -147.39101 | 35024 ft | 532 kts | 56° |
| 2026-05-07 01:30 | 29.32707 | -147.31914 | 35024 ft | 531 kts | 56° |
| 2026-05-07 01:31 | 29.36537 | -147.24651 | 35026 ft | 531 kts | 56° |
| 2026-05-07 01:31 | 29.40360 | -147.17394 | 35026 ft | 533 kts | 56° |
| 2026-05-07 01:32 | 29.44160 | -147.10161 | 35025 ft | 532 kts | 56° |
| 2026-05-07 01:32 | 29.47973 | -147.02893 | 35027 ft | 533 kts | 56° |
| 2026-05-07 01:33 | 29.51770 | -146.95644 | 35029 ft | 533 kts | 56° |
| 2026-05-07 01:33 | 29.55573 | -146.88368 | 35031 ft | 533 kts | 56° |
| 2026-05-07 01:34 | 29.59382 | -146.81070 | 35028 ft | 534 kts | 56° |
| 2026-05-07 01:34 | 29.63198 | -146.73744 | 35027 ft | 533 kts | 56° |
| 2026-05-07 01:35 | 29.66980 | -146.66469 | 35025 ft | 532 kts | 56° |
| 2026-05-07 01:35 | 29.71404 | -146.57944 | 35026 ft | 534 kts | 56° |
| 2026-05-07 01:36 | 29.74566 | -146.51839 | 35026 ft | 534 kts | 56° |
| 2026-05-07 01:36 | 29.78347 | -146.44528 | 35023 ft | 535 kts | 56° |
| 2026-05-07 01:37 | 29.82151 | -146.37158 | 35023 ft | 534 kts | 56° |
| 2026-05-07 01:37 | 29.85928 | -146.29829 | 35026 ft | 535 kts | 57° |
| 2026-05-07 01:38 | 29.89709 | -146.22478 | 35025 ft | 536 kts | 57° |
| 2026-05-07 01:38 | 29.93495 | -146.15100 | 35025 ft | 535 kts | 56° |
| 2026-05-07 01:39 | 29.97278 | -146.07718 | 35027 ft | 535 kts | 57° |
| 2026-05-07 01:39 | 30.01067 | -146.00311 | 35030 ft | 536 kts | 57° |
| 2026-05-07 01:40 | 30.04836 | -145.92928 | 35029 ft | 535 kts | 57° |
| 2026-05-07 01:40 | 30.08604 | -145.85535 | 35035 ft | 536 kts | 57° |
| 2026-05-07 01:41 | 30.12365 | -145.78139 | 35034 ft | 537 kts | 57° |
| 2026-05-07 01:41 | 30.16150 | -145.70682 | 35034 ft | 535 kts | 57° |
| 2026-05-07 01:42 | 30.19884 | -145.63313 | 35039 ft | 536 kts | 57° |
| 2026-05-07 01:42 | 30.23658 | -145.55852 | 35044 ft | 537 kts | 57° |
| 2026-05-07 01:43 | 30.27393 | -145.48451 | 35044 ft | 535 kts | 57° |
| 2026-05-07 01:43 | 30.31129 | -145.41040 | 35043 ft | 537 kts | 57° |
| 2026-05-07 01:44 | 30.34887 | -145.33568 | 35043 ft | 537 kts | 57° |
| 2026-05-07 01:44 | 30.38626 | -145.26115 | 35047 ft | 535 kts | 57° |
| 2026-05-07 01:45 | 30.42361 | -145.18663 | 35050 ft | 537 kts | 57° |
| 2026-05-07 01:45 | 30.46099 | -145.11189 | 35047 ft | 537 kts | 57° |
| 2026-05-07 01:46 | 30.49809 | -145.03754 | 35045 ft | 537 kts | 57° |
| 2026-05-07 01:46 | 30.53546 | -144.96252 | 35051 ft | 538 kts | 57° |
| 2026-05-07 01:47 | 30.57285 | -144.88731 | 35049 ft | 537 kts | 57° |
| 2026-05-07 01:47 | 30.60991 | -144.81267 | 35048 ft | 539 kts | 57° |
| 2026-05-07 01:48 | 30.64732 | -144.73711 | 35052 ft | 537 kts | 57° |
| 2026-05-07 01:48 | 30.68432 | -144.66226 | 35057 ft | 536 kts | 57° |
| 2026-05-07 01:49 | 30.72125 | -144.58740 | 35054 ft | 537 kts | 57° |
| 2026-05-07 01:49 | 30.75827 | -144.51225 | 35058 ft | 536 kts | 57° |
| 2026-05-07 01:50 | 30.79514 | -144.43724 | 35057 ft | 536 kts | 57° |
| 2026-05-07 01:50 | 30.83215 | -144.36180 | 35057 ft | 538 kts | 57° |
| 2026-05-07 01:51 | 30.86911 | -144.28628 | 35062 ft | 536 kts | 58° |
| 2026-05-07 01:51 | 30.90582 | -144.21115 | 35061 ft | 538 kts | 58° |
| 2026-05-07 01:52 | 30.94269 | -144.13557 | 35062 ft | 539 kts | 58° |
| 2026-05-07 01:52 | 30.97960 | -144.05969 | 35061 ft | 536 kts | 58° |
| 2026-05-07 01:53 | 31.01617 | -143.98442 | 35070 ft | 538 kts | 58° |
| 2026-05-07 01:53 | 31.05306 | -143.90834 | 35069 ft | 538 kts | 58° |
| 2026-05-07 01:54 | 31.08963 | -143.83273 | 35072 ft | 537 kts | 58° |
| 2026-05-07 01:54 | 31.12644 | -143.75652 | 35071 ft | 538 kts | 58° |
| 2026-05-07 01:55 | 31.16298 | -143.68069 | 35071 ft | 539 kts | 58° |
| 2026-05-07 01:55 | 31.19959 | -143.60457 | 35075 ft | 538 kts | 58° |
| 2026-05-07 01:56 | 31.23590 | -143.52892 | 35077 ft | 536 kts | 58° |
| 2026-05-07 01:56 | 31.27238 | -143.45277 | 35077 ft | 538 kts | 58° |
| 2026-05-07 01:57 | 31.30877 | -143.37668 | 35079 ft | 537 kts | 57° |
| 2026-05-07 01:57 | 31.34495 | -143.30083 | 35080 ft | 537 kts | 58° |
| 2026-05-07 01:58 | 31.38127 | -143.22456 | 35085 ft | 539 kts | 58° |
| 2026-05-07 01:58 | 31.41756 | -143.14819 | 35086 ft | 537 kts | 58° |
| 2026-05-07 01:59 | 31.45390 | -143.07155 | 35086 ft | 538 kts | 58° |
| 2026-05-07 01:59 | 31.49004 | -142.99521 | 35084 ft | 538 kts | 58° |
| 2026-05-07 02:00 | 31.52618 | -142.91870 | 35089 ft | 537 kts | 58° |
| 2026-05-07 02:00 | 31.56211 | -142.84247 | 35097 ft | 537 kts | 58° |
| 2026-05-07 02:01 | 31.59833 | -142.76550 | 35099 ft | 538 kts | 58° |
| 2026-05-07 02:01 | 31.63414 | -142.68921 | 35102 ft | 537 kts | 58° |
| 2026-05-07 02:02 | 31.67016 | -142.61230 | 35105 ft | 538 kts | 58° |
| 2026-05-07 02:02 | 31.70601 | -142.53564 | 35109 ft | 537 kts | 58° |
| 2026-05-07 02:03 | 31.74163 | -142.45927 | 35111 ft | 537 kts | 58° |
| 2026-05-07 02:03 | 31.77752 | -142.38223 | 35115 ft | 537 kts | 58° |
| 2026-05-07 02:04 | 31.81309 | -142.30568 | 35119 ft | 537 kts | 58° |
| 2026-05-07 02:04 | 31.84880 | -142.22864 | 35121 ft | 536 kts | 58° |
| 2026-05-07 02:05 | 31.88448 | -142.15155 | 35125 ft | 537 kts | 59° |
| 2026-05-07 02:05 | 31.91973 | -142.07521 | 35128 ft | 535 kts | 59° |
| 2026-05-07 02:06 | 31.95530 | -141.99805 | 35127 ft | 536 kts | 58° |
| 2026-05-07 02:06 | 31.99036 | -141.92175 | 35131 ft | 532 kts | 59° |
| 2026-05-07 02:07 | 32.02557 | -141.84495 | 35131 ft | 533 kts | 59° |
| 2026-05-07 02:07 | 32.07815 | -141.72986 | 35132 ft | 534 kts | 59° |
| 2026-05-07 02:08 | 32.11328 | -141.65274 | 35136 ft | 534 kts | 59° |
| 2026-05-07 02:08 | 32.14841 | -141.57550 | 35134 ft | 536 kts | 59° |
| 2026-05-07 02:09 | 32.18348 | -141.49820 | 35139 ft | 534 kts | 59° |
| 2026-05-07 02:09 | 32.21815 | -141.42160 | 35143 ft | 533 kts | 59° |
| 2026-05-07 02:10 | 32.25303 | -141.34444 | 35131 ft | 535 kts | 59° |
| 2026-05-07 02:10 | 32.28798 | -141.26694 | 35133 ft | 533 kts | 59° |
| 2026-05-07 02:11 | 32.32275 | -141.18964 | 35137 ft | 535 kts | 59° |
| 2026-05-07 02:11 | 32.35762 | -141.11198 | 35141 ft | 534 kts | 59° |
| 2026-05-07 02:12 | 32.39216 | -141.03487 | 35140 ft | 532 kts | 59° |
| 2026-05-07 02:12 | 32.42676 | -140.95749 | 35140 ft | 533 kts | 59° |
| 2026-05-07 02:13 | 32.46126 | -140.88017 | 35138 ft | 533 kts | 59° |
| 2026-05-07 02:13 | 32.49567 | -140.80284 | 35145 ft | 532 kts | 59° |
| 2026-05-07 02:14 | 32.53009 | -140.72534 | 35144 ft | 532 kts | 59° |
| 2026-05-07 02:14 | 32.56438 | -140.64803 | 35145 ft | 533 kts | 59° |
| 2026-05-07 02:15 | 32.59855 | -140.57075 | 35147 ft | 530 kts | 59° |
| 2026-05-07 02:15 | 32.63274 | -140.49332 | 35149 ft | 531 kts | 59° |
| 2026-05-07 02:16 | 32.66696 | -140.41560 | 35154 ft | 531 kts | 59° |
| 2026-05-07 02:16 | 32.70095 | -140.33827 | 35145 ft | 530 kts | 60° |
| 2026-05-07 02:17 | 32.73477 | -140.26114 | 35152 ft | 531 kts | 60° |
| 2026-05-07 02:17 | 32.76877 | -140.18344 | 35152 ft | 529 kts | 60° |
| 2026-05-07 02:18 | 32.80258 | -140.10599 | 35155 ft | 529 kts | 60° |
| 2026-05-07 02:18 | 32.83626 | -140.02867 | 35157 ft | 527 kts | 60° |
| 2026-05-07 02:19 | 32.86984 | -139.95145 | 35156 ft | 528 kts | 60° |
| 2026-05-07 02:19 | 32.90334 | -139.87425 | 35157 ft | 529 kts | 60° |
| 2026-05-07 02:20 | 32.93698 | -139.79649 | 35159 ft | 525 kts | 60° |
| 2026-05-07 02:20 | 32.97035 | -139.71924 | 35159 ft | 528 kts | 60° |
| 2026-05-07 02:21 | 33.00367 | -139.64192 | 35159 ft | 526 kts | 60° |
| 2026-05-07 02:21 | 33.03683 | -139.56480 | 35159 ft | 524 kts | 60° |
| 2026-05-07 02:22 | 33.06992 | -139.48769 | 35162 ft | 526 kts | 60° |
| 2026-05-07 02:22 | 33.10328 | -139.40977 | 35164 ft | 525 kts | 60° |
| 2026-05-07 02:23 | 33.13608 | -139.33298 | 35170 ft | 523 kts | 60° |
| 2026-05-07 02:23 | 33.16913 | -139.25546 | 35181 ft | 524 kts | 60° |
| 2026-05-07 02:24 | 33.20192 | -139.17837 | 35181 ft | 524 kts | 60° |
| 2026-05-07 02:24 | 33.23481 | -139.10088 | 35183 ft | 525 kts | 60° |
| 2026-05-07 02:25 | 33.26759 | -139.02347 | 35186 ft | 523 kts | 60° |
| 2026-05-07 02:25 | 33.30039 | -138.94582 | 35190 ft | 521 kts | 60° |
| 2026-05-07 02:26 | 33.33279 | -138.86897 | 35190 ft | 521 kts | 60° |
| 2026-05-07 02:26 | 33.36528 | -138.79173 | 35193 ft | 521 kts | 60° |
| 2026-05-07 02:27 | 33.39772 | -138.71446 | 35193 ft | 521 kts | 60° |
| 2026-05-07 02:27 | 33.43010 | -138.63716 | 35193 ft | 521 kts | 60° |
| 2026-05-07 02:28 | 33.46257 | -138.55943 | 35196 ft | 521 kts | 60° |
| 2026-05-07 02:28 | 33.49469 | -138.48239 | 35197 ft | 519 kts | 60° |
| 2026-05-07 02:29 | 33.52689 | -138.40498 | 35202 ft | 521 kts | 60° |
| 2026-05-07 02:29 | 33.55914 | -138.32729 | 35203 ft | 521 kts | 61° |
| 2026-05-07 02:30 | 33.59101 | -138.25030 | 35202 ft | 518 kts | 61° |
| 2026-05-07 02:30 | 33.62317 | -138.17250 | 35208 ft | 520 kts | 61° |
| 2026-05-07 02:31 | 33.65499 | -138.09532 | 35211 ft | 518 kts | 61° |
| 2026-05-07 02:31 | 33.68686 | -138.01784 | 35212 ft | 517 kts | 61° |
| 2026-05-07 02:32 | 33.71870 | -137.94026 | 35214 ft | 519 kts | 61° |
| 2026-05-07 02:32 | 33.75050 | -137.86263 | 35216 ft | 519 kts | 62° |
| 2026-05-07 02:33 | 33.78215 | -137.78513 | 35217 ft | 517 kts | 62° |
| 2026-05-07 02:33 | 33.81362 | -137.70793 | 35222 ft | 518 kts | 62° |
| 2026-05-07 02:34 | 33.84523 | -137.63023 | 35221 ft | 519 kts | 62° |
| 2026-05-07 02:34 | 33.87684 | -137.55232 | 35223 ft | 517 kts | 62° |
| 2026-05-07 02:35 | 33.90831 | -137.47458 | 35226 ft | 518 kts | 62° |
| 2026-05-07 02:35 | 33.93965 | -137.39700 | 35226 ft | 517 kts | 62° |
| 2026-05-07 02:36 | 33.97094 | -137.31937 | 35226 ft | 517 kts | 62° |
| 2026-05-07 02:36 | 34.00226 | -137.24149 | 35228 ft | 519 kts | 62° |
| 2026-05-07 02:37 | 34.03359 | -137.16339 | 35229 ft | 518 kts | 62° |
| 2026-05-07 02:37 | 34.06479 | -137.08540 | 35232 ft | 518 kts | 62° |
| 2026-05-07 02:38 | 34.09605 | -137.00713 | 35234 ft | 518 kts | 62° |
| 2026-05-07 02:38 | 34.12699 | -136.92944 | 35234 ft | 516 kts | 62° |
| 2026-05-07 02:39 | 34.15798 | -136.85149 | 35238 ft | 516 kts | 62° |
| 2026-05-07 02:39 | 34.18895 | -136.77339 | 35238 ft | 515 kts | 62° |
| 2026-05-07 02:40 | 34.21975 | -136.69554 | 35241 ft | 516 kts | 62° |
| 2026-05-07 02:40 | 34.25038 | -136.61793 | 35242 ft | 516 kts | 62° |
| 2026-05-07 02:41 | 34.28107 | -136.53998 | 35245 ft | 514 kts | 62° |
| 2026-05-07 02:41 | 34.31189 | -136.46152 | 35246 ft | 516 kts | 62° |
| 2026-05-07 02:42 | 34.34238 | -136.38373 | 35246 ft | 514 kts | 62° |
| 2026-05-07 02:42 | 34.37274 | -136.30608 | 35246 ft | 512 kts | 63° |
| 2026-05-07 02:43 | 34.40316 | -136.22810 | 35249 ft | 514 kts | 63° |
| 2026-05-07 02:43 | 34.43363 | -136.14983 | 35250 ft | 513 kts | 63° |
| 2026-05-07 02:44 | 34.46382 | -136.07205 | 35252 ft | 513 kts | 63° |
| 2026-05-07 02:44 | 34.49406 | -135.99402 | 35255 ft | 514 kts | 63° |
| 2026-05-07 02:45 | 34.52420 | -135.91599 | 35254 ft | 511 kts | 63° |
| 2026-05-07 02:45 | 34.55425 | -135.83804 | 35255 ft | 512 kts | 63° |
| 2026-05-07 02:46 | 34.58434 | -135.75981 | 35255 ft | 512 kts | 63° |
| 2026-05-07 02:46 | 34.61425 | -135.68185 | 35256 ft | 511 kts | 63° |
| 2026-05-07 02:47 | 34.64404 | -135.60403 | 35258 ft | 512 kts | 63° |
| 2026-05-07 02:47 | 34.67385 | -135.52597 | 35260 ft | 510 kts | 63° |
| 2026-05-07 02:48 | 34.70356 | -135.44797 | 35263 ft | 511 kts | 63° |
| 2026-05-07 02:48 | 34.73341 | -135.36945 | 35264 ft | 511 kts | 63° |
| 2026-05-07 02:49 | 34.76312 | -135.29108 | 35266 ft | 510 kts | 63° |
| 2026-05-07 02:49 | 34.79256 | -135.21324 | 35268 ft | 510 kts | 63° |
| 2026-05-07 02:50 | 34.82216 | -135.13480 | 35269 ft | 510 kts | 63° |
| 2026-05-07 02:50 | 34.85143 | -135.05702 | 35270 ft | 509 kts | 63° |
| 2026-05-07 02:51 | 34.88087 | -134.97865 | 35278 ft | 509 kts | 63° |
| 2026-05-07 02:51 | 34.91005 | -134.90073 | 35270 ft | 506 kts | 63° |
| 2026-05-07 02:52 | 34.93914 | -134.82288 | 35266 ft | 509 kts | 63° |
| 2026-05-07 02:52 | 34.96835 | -134.74452 | 35254 ft | 508 kts | 63° |
| 2026-05-07 02:53 | 34.99743 | -134.66629 | 35257 ft | 508 kts | 63° |
| 2026-05-07 02:53 | 35.02644 | -134.58807 | 35256 ft | 508 kts | 63° |
| 2026-05-07 02:54 | 35.05539 | -134.50978 | 35256 ft | 507 kts | 63° |
| 2026-05-07 02:54 | 35.08431 | -134.43141 | 35255 ft | 507 kts | 63° |
| 2026-05-07 02:55 | 35.11309 | -134.35323 | 35257 ft | 507 kts | 63° |
| 2026-05-07 02:55 | 35.14185 | -134.27487 | 35258 ft | 505 kts | 64° |
| 2026-05-07 02:56 | 35.17049 | -134.19669 | 35258 ft | 507 kts | 64° |
| 2026-05-07 02:56 | 35.19909 | -134.11841 | 35257 ft | 506 kts | 64° |
| 2026-05-07 02:57 | 35.22762 | -134.04011 | 35256 ft | 506 kts | 64° |
| 2026-05-07 02:57 | 35.25619 | -133.96155 | 35263 ft | 507 kts | 64° |
| 2026-05-07 02:58 | 35.28473 | -133.88284 | 35271 ft | 507 kts | 64° |
| 2026-05-07 02:58 | 35.31316 | -133.80426 | 35277 ft | 507 kts | 64° |
| 2026-05-07 02:59 | 35.34144 | -133.72586 | 35276 ft | 505 kts | 63° |
| 2026-05-07 02:59 | 35.36973 | -133.64728 | 35276 ft | 504 kts | 63° |
| 2026-05-07 03:00 | 35.39785 | -133.56895 | 35276 ft | 504 kts | 63° |
| 2026-05-07 03:00 | 35.42600 | -133.49037 | 35277 ft | 504 kts | 63° |
| 2026-05-07 03:01 | 35.45395 | -133.41216 | 35276 ft | 505 kts | 63° |
| 2026-05-07 03:01 | 35.48224 | -133.33278 | 35275 ft | 506 kts | 64° |
| 2026-05-07 03:02 | 35.51018 | -133.25415 | 35275 ft | 505 kts | 64° |
| 2026-05-07 03:02 | 35.53803 | -133.17561 | 35279 ft | 506 kts | 64° |
| 2026-05-07 03:03 | 35.56611 | -133.09624 | 35285 ft | 504 kts | 64° |
| 2026-05-07 03:03 | 35.59380 | -133.01773 | 35295 ft | 504 kts | 64° |
| 2026-05-07 03:04 | 35.62151 | -132.93898 | 35292 ft | 505 kts | 64° |
| 2026-05-07 03:04 | 35.64935 | -132.85965 | 35293 ft | 503 kts | 64° |
| 2026-05-07 03:05 | 35.67697 | -132.78078 | 35295 ft | 505 kts | 64° |
| 2026-05-07 03:05 | 35.70441 | -132.70218 | 35293 ft | 502 kts | 64° |
| 2026-05-07 03:06 | 35.73198 | -132.62305 | 35288 ft | 503 kts | 64° |
| 2026-05-07 03:06 | 35.75940 | -132.54413 | 35287 ft | 504 kts | 64° |
| 2026-05-07 03:07 | 35.78664 | -132.46550 | 35275 ft | 501 kts | 64° |
| 2026-05-07 03:07 | 35.81392 | -132.38654 | 35275 ft | 501 kts | 63° |
| 2026-05-07 03:08 | 35.84100 | -132.30803 | 35268 ft | 501 kts | 64° |
| 2026-05-07 03:08 | 35.86817 | -132.22900 | 35263 ft | 501 kts | 64° |
| 2026-05-07 03:09 | 35.89520 | -132.15019 | 35264 ft | 500 kts | 64° |
| 2026-05-07 03:09 | 35.92224 | -132.07115 | 35258 ft | 500 kts | 64° |
| 2026-05-07 03:10 | 35.94902 | -131.99260 | 35260 ft | 497 kts | 64° |
| 2026-05-07 03:10 | 35.97589 | -131.91371 | 35266 ft | 503 kts | 64° |
| 2026-05-07 03:11 | 35.98932 | -131.87419 | 35492 ft | 502 kts | 64° |
| 2026-05-07 03:11 | 36.00265 | -131.83489 | 35890 ft | 499 kts | 64° |
| 2026-05-07 03:11 | 36.01600 | -131.79544 | 36247 ft | 498 kts | 64° |
| 2026-05-07 03:11 | 36.02935 | -131.75597 | 36478 ft | 498 kts | 64° |
| 2026-05-07 03:12 | 36.04262 | -131.71672 | 36717 ft | 498 kts | 64° |
| 2026-05-07 03:12 | 36.05581 | -131.67763 | 36941 ft | 498 kts | 64° |
| 2026-05-07 03:12 | 36.06911 | -131.63820 | 37169 ft | 498 kts | 64° |
| 2026-05-07 03:12 | 36.08255 | -131.59827 | 37268 ft | 500 kts | 64° |
| 2026-05-07 03:13 | 36.10895 | -131.51965 | 37274 ft | 494 kts | 64° |
| 2026-05-07 03:13 | 36.13512 | -131.44147 | 37276 ft | 492 kts | 64° |
| 2026-05-07 03:14 | 36.16133 | -131.36317 | 37281 ft | 500 kts | 64° |
| 2026-05-07 03:15 | 36.20087 | -131.24437 | 37277 ft | 494 kts | 64° |
| 2026-05-07 03:15 | 36.22687 | -131.16606 | 37275 ft | 497 kts | 64° |
| 2026-05-07 03:16 | 36.25303 | -131.08705 | 37280 ft | 498 kts | 64° |
| 2026-05-07 03:16 | 36.27919 | -131.00783 | 37278 ft | 496 kts | 64° |
| 2026-05-07 03:17 | 36.30516 | -130.92897 | 37274 ft | 497 kts | 64° |
| 2026-05-07 03:17 | 36.33122 | -130.84969 | 37274 ft | 498 kts | 65° |
| 2026-05-07 03:18 | 36.35726 | -130.77014 | 37274 ft | 497 kts | 65° |
| 2026-05-07 03:18 | 36.38312 | -130.69096 | 37271 ft | 498 kts | 65° |
| 2026-05-07 03:19 | 36.40887 | -130.61197 | 37269 ft | 497 kts | 65° |
| 2026-05-07 03:19 | 36.43475 | -130.53229 | 37266 ft | 497 kts | 65° |
| 2026-05-07 03:20 | 36.46054 | -130.45274 | 37265 ft | 498 kts | 65° |
| 2026-05-07 03:20 | 36.48618 | -130.37340 | 37262 ft | 498 kts | 65° |
| 2026-05-07 03:21 | 36.51174 | -130.29408 | 37261 ft | 497 kts | 66° |
| 2026-05-07 03:21 | 36.53741 | -130.21422 | 37259 ft | 498 kts | 66° |
| 2026-05-07 03:22 | 36.56293 | -130.13460 | 37260 ft | 498 kts | 66° |
| 2026-05-07 03:22 | 36.58845 | -130.05476 | 37255 ft | 497 kts | 66° |
| 2026-05-07 03:23 | 36.61392 | -129.97488 | 37255 ft | 497 kts | 66° |
| 2026-05-07 03:23 | 36.63926 | -129.89517 | 37258 ft | 499 kts | 66° |
| 2026-05-07 03:24 | 36.66472 | -129.81488 | 37254 ft | 499 kts | 66° |
| 2026-05-07 03:24 | 36.68995 | -129.73505 | 37254 ft | 500 kts | 67° |
| 2026-05-07 03:25 | 36.71540 | -129.65433 | 37259 ft | 500 kts | 67° |
| 2026-05-07 03:25 | 36.74077 | -129.57369 | 37253 ft | 502 kts | 67° |
| 2026-05-07 03:26 | 36.76604 | -129.49307 | 37256 ft | 502 kts | 67° |
| 2026-05-07 03:26 | 36.79133 | -129.41219 | 37256 ft | 502 kts | 68° |
| 2026-05-07 03:27 | 36.81653 | -129.33133 | 37254 ft | 503 kts | 68° |
| 2026-05-07 03:27 | 36.84181 | -129.25000 | 37254 ft | 502 kts | 68° |
| 2026-05-07 03:28 | 36.86680 | -129.16939 | 37259 ft | 503 kts | 68° |
| 2026-05-07 03:28 | 36.89205 | -129.08769 | 37254 ft | 502 kts | 69° |
| 2026-05-07 03:29 | 36.91693 | -129.00697 | 37247 ft | 501 kts | 69° |
| 2026-05-07 03:29 | 36.94184 | -128.92593 | 37239 ft | 503 kts | 69° |
| 2026-05-07 03:30 | 36.96682 | -128.84439 | 37227 ft | 502 kts | 69° |
| 2026-05-07 03:30 | 36.99169 | -128.76302 | 37231 ft | 502 kts | 69° |
| 2026-05-07 03:31 | 37.01648 | -128.68162 | 37232 ft | 502 kts | 69° |
| 2026-05-07 03:31 | 37.04110 | -128.60059 | 37232 ft | 502 kts | 69° |
| 2026-05-07 03:32 | 37.06589 | -128.51875 | 37232 ft | 501 kts | 69° |
| 2026-05-07 03:32 | 37.09046 | -128.43741 | 37232 ft | 502 kts | 69° |
| 2026-05-07 03:33 | 37.11506 | -128.35571 | 37232 ft | 502 kts | 69° |
| 2026-05-07 03:33 | 37.13948 | -128.27438 | 37233 ft | 500 kts | 69° |
| 2026-05-07 03:34 | 37.16374 | -128.19338 | 37231 ft | 500 kts | 70° |
| 2026-05-07 03:34 | 37.18805 | -128.11197 | 37233 ft | 501 kts | 70° |
| 2026-05-07 03:35 | 37.21235 | -128.03032 | 37233 ft | 500 kts | 70° |
| 2026-05-07 03:35 | 37.23650 | -127.94894 | 37233 ft | 502 kts | 70° |
| 2026-05-07 03:36 | 37.26078 | -127.86691 | 37227 ft | 500 kts | 70° |
| 2026-05-07 03:36 | 37.28489 | -127.78519 | 37230 ft | 500 kts | 70° |
| 2026-05-07 03:37 | 37.30885 | -127.70374 | 37228 ft | 502 kts | 70° |
| 2026-05-07 03:37 | 37.33292 | -127.62165 | 37225 ft | 499 kts | 70° |
| 2026-05-07 03:38 | 37.35669 | -127.54037 | 37230 ft | 500 kts | 70° |
| 2026-05-07 03:38 | 37.38066 | -127.45817 | 37226 ft | 500 kts | 70° |
| 2026-05-07 03:39 | 37.40435 | -127.37663 | 37225 ft | 499 kts | 69° |
| 2026-05-07 03:39 | 37.42798 | -127.29513 | 37225 ft | 500 kts | 70° |
| 2026-05-07 03:40 | 37.45171 | -127.21298 | 37221 ft | 499 kts | 70° |
| 2026-05-07 03:40 | 37.47523 | -127.13134 | 37218 ft | 498 kts | 70° |
| 2026-05-07 03:41 | 37.49874 | -127.04946 | 37214 ft | 499 kts | 70° |
| 2026-05-07 03:41 | 37.52224 | -126.96740 | 37212 ft | 499 kts | 70° |
| 2026-05-07 03:42 | 37.54582 | -126.88493 | 37216 ft | 499 kts | 70° |
| 2026-05-07 03:42 | 37.56918 | -126.80303 | 37216 ft | 500 kts | 70° |
| 2026-05-07 03:43 | 37.59247 | -126.72105 | 37213 ft | 498 kts | 70° |
| 2026-05-07 03:43 | 37.61572 | -126.63897 | 37215 ft | 499 kts | 70° |
| 2026-05-07 03:44 | 37.63903 | -126.55646 | 37211 ft | 500 kts | 70° |
| 2026-05-07 03:44 | 37.66211 | -126.47448 | 37212 ft | 498 kts | 70° |
| 2026-05-07 03:45 | 37.68533 | -126.39174 | 37211 ft | 499 kts | 70° |
| 2026-05-07 03:45 | 37.70843 | -126.30920 | 37206 ft | 500 kts | 70° |
| 2026-05-07 03:46 | 37.73142 | -126.22678 | 37202 ft | 499 kts | 70° |
| 2026-05-07 03:46 | 37.75432 | -126.14442 | 37200 ft | 500 kts | 70° |
| 2026-05-07 03:47 | 37.77714 | -126.06210 | 37195 ft | 499 kts | 70° |
| 2026-05-07 03:47 | 37.79994 | -125.97959 | 37189 ft | 499 kts | 70° |
| 2026-05-07 03:48 | 37.82276 | -125.89674 | 37192 ft | 500 kts | 70° |
| 2026-05-07 03:48 | 37.84321 | -125.81283 | 37194 ft | 500 kts | 78° |
| 2026-05-07 03:49 | 37.85316 | -125.72617 | 37190 ft | 501 kts | 83° |
| 2026-05-07 03:49 | 37.86054 | -125.63888 | 37189 ft | 501 kts | 83° |
| 2026-05-07 03:50 | 37.86823 | -125.55167 | 37190 ft | 501 kts | 83° |
| 2026-05-07 03:50 | 37.87627 | -125.46430 | 37188 ft | 501 kts | 82° |
| 2026-05-07 03:51 | 37.88434 | -125.37720 | 37180 ft | 500 kts | 82° |
| 2026-05-07 03:51 | 37.89240 | -125.28955 | 37178 ft | 501 kts | 83° |
| 2026-05-07 03:52 | 37.90031 | -125.20264 | 37182 ft | 501 kts | 83° |
| 2026-05-07 03:52 | 37.90820 | -125.11528 | 37176 ft | 501 kts | 83° |
| 2026-05-07 03:53 | 37.91604 | -125.02778 | 37178 ft | 502 kts | 83° |
| 2026-05-07 03:53 | 37.92377 | -124.94066 | 37168 ft | 500 kts | 83° |
| 2026-05-07 03:54 | 37.93149 | -124.85304 | 37171 ft | 501 kts | 82° |
| 2026-05-07 03:54 | 37.93910 | -124.76594 | 37167 ft | 503 kts | 82° |
| 2026-05-07 03:55 | 37.94668 | -124.67820 | 37164 ft | 500 kts | 82° |
| 2026-05-07 03:55 | 37.95419 | -124.59074 | 37162 ft | 501 kts | 82° |
| 2026-05-07 03:56 | 37.96165 | -124.50292 | 37160 ft | 501 kts | 82° |
| 2026-05-07 03:56 | 37.96901 | -124.41565 | 37161 ft | 500 kts | 82° |
| 2026-05-07 03:57 | 37.97629 | -124.32839 | 37160 ft | 502 kts | 83° |
| 2026-05-07 03:57 | 37.98352 | -124.24095 | 37159 ft | 500 kts | 83° |
| 2026-05-07 03:58 | 37.99071 | -124.15343 | 37153 ft | 501 kts | 82° |
| 2026-05-07 03:58 | 37.99785 | -124.06549 | 37151 ft | 501 kts | 82° |
| 2026-05-07 03:59 | 38.00485 | -123.97827 | 37152 ft | 499 kts | 82° |
| 2026-05-07 03:59 | 38.01179 | -123.89118 | 37149 ft | 501 kts | 83° |
| 2026-05-07 03:59 | 38.01530 | -123.84690 | 36883 ft | 505 kts | 82° |
| 2026-05-07 04:00 | 38.01878 | -123.80268 | 36576 ft | 505 kts | 82° |
| 2026-05-07 04:00 | 38.02223 | -123.75849 | 36274 ft | 501 kts | 82° |
| 2026-05-07 04:00 | 38.02560 | -123.71525 | 35971 ft | 498 kts | 82° |
| 2026-05-07 04:00 | 38.02901 | -123.67124 | 35666 ft | 501 kts | 82° |
| 2026-05-07 04:01 | 38.03245 | -123.62684 | 35015 ft | 511 kts | 82° |
| 2026-05-07 04:01 | 38.03590 | -123.58207 | 34282 ft | 513 kts | 82° |
| 2026-05-07 04:01 | 38.03927 | -123.53783 | 33573 ft | 507 kts | 82° |
| 2026-05-07 04:01 | 38.04260 | -123.49352 | 32906 ft | 503 kts | 82° |
| 2026-05-07 04:02 | 38.04590 | -123.44965 | 32242 ft | 503 kts | 82° |
| 2026-05-07 04:02 | 38.04920 | -123.40574 | 31579 ft | 507 kts | 82° |
| 2026-05-07 04:02 | 38.05257 | -123.36076 | 30909 ft | 509 kts | 82° |
| 2026-05-07 04:02 | 38.05587 | -123.31645 | 30250 ft | 505 kts | 83° |
| 2026-05-07 04:03 | 38.05911 | -123.27249 | 29592 ft | 498 kts | 83° |
| 2026-05-07 04:03 | 38.06227 | -123.22951 | 28941 ft | 491 kts | 83° |
| 2026-05-07 04:03 | 38.06534 | -123.18761 | 28303 ft | 484 kts | 83° |
| 2026-05-07 04:03 | 38.06838 | -123.14610 | 27662 ft | 479 kts | 83° |
| 2026-05-07 04:04 | 38.07142 | -123.10432 | 27013 ft | 474 kts | 83° |
| 2026-05-07 04:04 | 38.07442 | -123.06284 | 26364 ft | 470 kts | 83° |
| 2026-05-07 04:04 | 38.07737 | -123.02196 | 25720 ft | 466 kts | 83° |
| 2026-05-07 04:04 | 38.07878 | -122.98100 | 25114 ft | 462 kts | 91° |
| 2026-05-07 04:05 | 38.07344 | -122.94129 | 24730 ft | 461 kts | 104° |
| 2026-05-07 04:05 | 38.06135 | -122.90371 | 24230 ft | 468 kts | 116° |
| 2026-05-07 04:05 | 38.04294 | -122.86978 | 23617 ft | 469 kts | 129° |
| 2026-05-07 04:05 | 38.01928 | -122.84185 | 23007 ft | 467 kts | 142° |
| 2026-05-07 04:06 | 37.99136 | -122.82031 | 22390 ft | 464 kts | 152° |
| 2026-05-07 04:06 | 37.96207 | -122.80361 | 21756 ft | 461 kts | 156° |
| 2026-05-07 04:06 | 37.93237 | -122.78938 | 21107 ft | 458 kts | 159° |
| 2026-05-07 04:06 | 37.90239 | -122.77616 | 20457 ft | 455 kts | 160° |
| 2026-05-07 04:07 | 37.87283 | -122.76352 | 19803 ft | 452 kts | 160° |
| 2026-05-07 04:07 | 37.84290 | -122.75078 | 19140 ft | 448 kts | 160° |
| 2026-05-07 04:07 | 37.81372 | -122.73830 | 18498 ft | 445 kts | 160° |
| 2026-05-07 04:07 | 37.78451 | -122.72575 | 17849 ft | 441 kts | 160° |
| 2026-05-07 04:08 | 37.75565 | -122.71331 | 17182 ft | 437 kts | 160° |
| 2026-05-07 04:08 | 37.72681 | -122.70086 | 16526 ft | 433 kts | 160° |
| 2026-05-07 04:08 | 37.69852 | -122.68863 | 15867 ft | 430 kts | 160° |
| 2026-05-07 04:08 | 37.67027 | -122.67641 | 15205 ft | 426 kts | 160° |
| 2026-05-07 04:09 | 37.64263 | -122.66447 | 14554 ft | 422 kts | 160° |
| 2026-05-07 04:09 | 37.61501 | -122.65254 | 13896 ft | 418 kts | 160° |
| 2026-05-07 04:09 | 37.58753 | -122.64068 | 13241 ft | 414 kts | 160° |
| 2026-05-07 04:09 | 37.56062 | -122.62909 | 12590 ft | 410 kts | 160° |
| 2026-05-07 04:10 | 37.53390 | -122.61759 | 11959 ft | 406 kts | 160° |
| 2026-05-07 04:10 | 37.50740 | -122.60619 | 11311 ft | 402 kts | 160° |
| 2026-05-07 04:10 | 37.48099 | -122.59471 | 10834 ft | 386 kts | 158° |
| 2026-05-07 04:10 | 37.45839 | -122.57959 | 10722 ft | 353 kts | 142° |
| 2026-05-07 04:11 | 37.44178 | -122.55912 | 10599 ft | 325 kts | 125° |
| 2026-05-07 04:11 | 37.42943 | -122.53638 | 10476 ft | 303 kts | 121° |
| 2026-05-07 04:11 | 37.41879 | -122.51418 | 10352 ft | 295 kts | 114° |
| 2026-05-07 04:11 | 37.41184 | -122.48992 | 10232 ft | 294 kts | 101° |
| 2026-05-07 04:12 | 37.40868 | -122.46486 | 10108 ft | 291 kts | 94° |
| 2026-05-07 04:12 | 37.40704 | -122.43893 | 9763 ft | 299 kts | 92° |
| 2026-05-07 04:12 | 37.40566 | -122.41280 | 9293 ft | 300 kts | 92° |
| 2026-05-07 04:12 | 37.40430 | -122.38696 | 8877 ft | 294 kts | 92° |
| 2026-05-07 04:13 | 37.40292 | -122.36161 | 8518 ft | 292 kts | 92° |
| 2026-05-07 04:13 | 37.40153 | -122.33633 | 8169 ft | 289 kts | 93° |
| 2026-05-07 04:13 | 37.40013 | -122.31136 | 7995 ft | 279 kts | 93° |
| 2026-05-07 04:13 | 37.39873 | -122.28754 | 7946 ft | 263 kts | 92° |
| 2026-05-07 04:14 | 37.39738 | -122.26617 | 7940 ft | 245 kts | 92° |
| 2026-05-07 04:14 | 37.39601 | -122.24545 | 7937 ft | 238 kts | 92° |
| 2026-05-07 04:14 | 37.39463 | -122.22510 | 7721 ft | 233 kts | 92° |
| 2026-05-07 04:14 | 37.39323 | -122.20476 | 7282 ft | 235 kts | 92° |
| 2026-05-07 04:15 | 37.39182 | -122.18424 | 6899 ft | 235 kts | 92° |
| 2026-05-07 04:15 | 37.39041 | -122.16383 | 6533 ft | 234 kts | 92° |
| 2026-05-07 04:15 | 37.38995 | -122.14352 | 6111 ft | 232 kts | 75° |
| 2026-05-07 04:15 | 37.39753 | -122.12634 | 5694 ft | 225 kts | 38° |
| 2026-05-07 04:16 | 37.41055 | -122.11589 | 5336 ft | 221 kts | 27° |
| 2026-05-07 04:16 | 37.42400 | -122.10683 | 4981 ft | 220 kts | 27° |
| 2026-05-07 04:16 | 37.43809 | -122.09981 | 4559 ft | 219 kts | 3° |
| 2026-05-07 04:16 | 37.45305 | -122.10272 | 4181 ft | 217 kts | 344° |
| 2026-05-07 04:17 | 37.46729 | -122.10822 | 3843 ft | 215 kts | 343° |
| 2026-05-07 04:17 | 37.48157 | -122.11387 | 3479 ft | 216 kts | 342° |
| 2026-05-07 04:17 | 37.49565 | -122.12015 | 3127 ft | 214 kts | 329° |
| 2026-05-07 04:17 | 37.50771 | -122.13097 | 2988 ft | 211 kts | 323° |
| 2026-05-07 04:18 | 37.51925 | -122.14241 | 2948 ft | 211 kts | 319° |
| 2026-05-07 04:18 | 37.52821 | -122.15716 | 2947 ft | 208 kts | 303° |
| 2026-05-07 04:18 | 37.53525 | -122.17205 | 2956 ft | 190 kts | 301° |
| 2026-05-07 04:18 | 37.54149 | -122.18626 | 2902 ft | 184 kts | 300° |
| 2026-05-07 04:19 | 37.54752 | -122.20038 | 2717 ft | 181 kts | 300° |
| 2026-05-07 04:19 | 37.55338 | -122.21426 | 2507 ft | 180 kts | 300° |
| 2026-05-07 04:19 | 37.55913 | -122.22794 | 2274 ft | 172 kts | 300° |
| 2026-05-07 04:19 | 37.56458 | -122.24086 | 2045 ft | 160 kts | 299° |
| 2026-05-07 04:20 | 37.56949 | -122.25251 | 1906 ft | 146 kts | 298° |
| 2026-05-07 04:20 | 37.57412 | -122.26352 | 1659 ft | 138 kts | 298° |
| 2026-05-07 04:20 | 37.57858 | -122.27410 | 1480 ft | 136 kts | 297° |
| 2026-05-07 04:21 | 37.58741 | -122.29511 | 1144 ft | 136 kts | 298° |
| 2026-05-07 04:21 | 37.59177 | -122.30553 | 962 ft | 135 kts | 297° |
| 2026-05-07 04:21 | 37.59619 | -122.31612 | 776 ft | 133 kts | 298° |
| 2026-05-07 04:21 | 37.60063 | -122.32661 | 610 ft | 134 kts | 297° |
| 2026-05-07 04:22 | 37.60503 | -122.33703 | 430 ft | 134 kts | 298° |
| 2026-05-07 04:22 | 37.60940 | -122.34740 | 246 ft | 132 kts | 297° |
| 2026-05-07 04:22 | 37.61368 | -122.35756 | 73 ft | 134 kts | 297° |
| 2026-05-07 04:22 | 37.61793 | -122.36765 | 18 ft | 123 kts | 297° |
| 2026-05-07 04:23 | 37.62130 | -122.37569 | 25 ft | 78 kts | 298° |
| 2026-05-07 04:23 | 37.62310 | -122.38000 | 30 ft | 31 kts | 298° |
| 2026-05-07 04:23 | 37.62330 | -122.38193 | 31 ft | 18 kts | 243° |
| 2026-05-07 04:23 | 37.62230 | -122.38281 | 32 ft | 17 kts | 197° |
| 2026-05-07 04:24 | 37.62120 | -122.38322 | 33 ft | 15 kts | 197° |
| 2026-05-07 04:24 | 37.62022 | -122.38324 | 34 ft | 13 kts | 138° |
| 2026-05-07 04:24 | 37.61976 | -122.38226 | 34 ft | 13 kts | 116° |
| 2026-05-07 04:24 | 37.61927 | -122.38102 | 33 ft | 16 kts | 117° |
| 2026-05-07 04:25 | 37.61855 | -122.37993 | 32 ft | 17 kts | 147° |
| 2026-05-07 04:25 | 37.61722 | -122.37943 | 32 ft | 21 kts | 184° |
| 2026-05-07 04:25 | 37.61589 | -122.38013 | 33 ft | 20 kts | 208° |
| 2026-05-07 04:25 | 37.61463 | -122.38096 | 34 ft | 19 kts | 208° |
| 2026-05-07 04:26 | 37.61341 | -122.38177 | 34 ft | 19 kts | 208° |
| 2026-05-07 04:26 | 37.61224 | -122.38255 | 35 ft | 18 kts | 207° |
| 2026-05-07 04:26 | 37.61108 | -122.38335 | 35 ft | 20 kts | 210° |
| 2026-05-07 04:26 | 37.60988 | -122.38425 | 35 ft | 20 kts | 211° |
| 2026-05-07 04:27 | 37.60888 | -122.38516 | 35 ft | 14 kts | 247° |
| 2026-05-07 04:27 | 37.60913 | -122.38632 | 35 ft | 14 kts | 298° |
| 2026-05-07 04:27 | 37.60965 | -122.38755 | 35 ft | 16 kts | 298° |
| 2026-05-07 04:27 | 37.61010 | -122.38862 | 35 ft | 6 kts | 303° |
| 2026-05-07 04:28 | 37.61016 | -122.38940 | 35 ft | 16 kts | 260° |
| 2026-05-07 04:28 | 37.61070 | -122.39095 | 35 ft | 21 kts | 312° |
| 2026-05-07 04:28 | 37.61197 | -122.39175 | 35 ft | 20 kts | 7° |
| 2026-05-07 04:28 | 37.61272 | -122.39136 | 35 ft | 0 kts | 27° |
| 2026-05-07 04:29 | 37.61294 | -122.39109 | 35 ft | 8 kts | 74° |
| 2026-05-07 04:29 | 37.61277 | -122.39047 | 35 ft | 5 kts | 117° |
| 2026-05-07 04:29 | 37.61271 | -122.39031 | 35 ft | 0 kts | 117° |